sensor_id;sensor_type;location;lat;lon;timestamp;P1;durP1;ratioP1;P2;durP2;ratioP2
7501;SDS011;3792;47.740;7.606;2022-08-21T00:01:13;2.87;;;1.07;;
7501;SDS011;3792;47.740;7.606;2022-08-21T00:03:43;1.77;;;1.20;;
7501;SDS011;3792;47.740;7.606;2022-08-21T00:06:10;2.73;;;1.00;;
7501;SDS011;3792;47.740;7.606;2022-08-21T00:08:37;3.07;;;1.10;;
7501;SDS011;3792;47.740;7.606;2022-08-21T00:11:05;2.10;;;1.17;;
7501;SDS011;3792;47.740;7.606;2022-08-21T00:13:33;1.77;;;1.10;;
7501;SDS011;3792;47.740;7.606;2022-08-21T00:16:01;1.70;;;1.10;;
7501;SDS011;3792;47.740;7.606;2022-08-21T00:18:30;2.10;;;1.10;;
7501;SDS011;3792;47.740;7.606;2022-08-21T00:20:58;1.67;;;1.00;;
7501;SDS011;3792;47.740;7.606;2022-08-21T00:23:25;5.40;;;1.20;;
7501;SDS011;3792;47.740;7.606;2022-08-21T00:25:52;5.70;;;1.10;;
7501;SDS011;3792;47.740;7.606;2022-08-21T00:28:19;2.67;;;1.13;;
7501;SDS011;3792;47.740;7.606;2022-08-21T00:30:46;2.73;;;1.13;;
7501;SDS011;3792;47.740;7.606;2022-08-21T00:33:13;2.00;;;1.00;;
7501;SDS011;3792;47.740;7.606;2022-08-21T00:35:42;1.80;;;0.83;;
7501;SDS011;3792;47.740;7.606;2022-08-21T00:38:09;1.90;;;1.10;;
7501;SDS011;3792;47.740;7.606;2022-08-21T00:40:38;5.47;;;1.20;;
7501;SDS011;3792;47.740;7.606;2022-08-21T00:43:08;1.63;;;1.00;;
7501;SDS011;3792;47.740;7.606;2022-08-21T00:45:37;2.63;;;1.40;;
7501;SDS011;3792;47.740;7.606;2022-08-21T00:48:05;4.03;;;1.30;;
7501;SDS011;3792;47.740;7.606;2022-08-21T00:50:35;3.87;;;1.03;;
7501;SDS011;3792;47.740;7.606;2022-08-21T00:53:07;3.60;;;1.00;;
7501;SDS011;3792;47.740;7.606;2022-08-21T00:55:36;3.10;;;1.17;;
7501;SDS011;3792;47.740;7.606;2022-08-21T00:58:05;4.53;;;1.00;;
7501;SDS011;3792;47.740;7.606;2022-08-21T01:00:36;5.70;;;1.20;;
7501;SDS011;3792;47.740;7.606;2022-08-21T01:03:05;3.20;;;1.10;;
7501;SDS011;3792;47.740;7.606;2022-08-21T01:05:34;1.63;;;1.07;;
7501;SDS011;3792;47.740;7.606;2022-08-21T01:08:02;1.57;;;1.07;;
7501;SDS011;3792;47.740;7.606;2022-08-21T01:10:32;1.77;;;1.10;;
7501;SDS011;3792;47.740;7.606;2022-08-21T01:13:00;1.30;;;1.07;;
7501;SDS011;3792;47.740;7.606;2022-08-21T01:15:28;2.23;;;0.80;;
7501;SDS011;3792;47.740;7.606;2022-08-21T01:18:06;1.73;;;1.20;;
7501;SDS011;3792;47.740;7.606;2022-08-21T01:20:36;3.00;;;1.20;;
7501;SDS011;3792;47.740;7.606;2022-08-21T01:23:05;1.17;;;1.13;;
7501;SDS011;3792;47.740;7.606;2022-08-21T01:25:33;3.23;;;1.10;;
7501;SDS011;3792;47.740;7.606;2022-08-21T01:28:02;1.43;;;0.90;;
7501;SDS011;3792;47.740;7.606;2022-08-21T01:30:35;1.70;;;0.90;;
7501;SDS011;3792;47.740;7.606;2022-08-21T01:33:04;2.87;;;1.27;;
7501;SDS011;3792;47.740;7.606;2022-08-21T01:35:31;2.23;;;0.93;;
7501;SDS011;3792;47.740;7.606;2022-08-21T01:37:59;3.40;;;1.13;;
7501;SDS011;3792;47.740;7.606;2022-08-21T01:40:27;4.83;;;1.50;;
7501;SDS011;3792;47.740;7.606;2022-08-21T01:42:54;1.17;;;0.93;;
7501;SDS011;3792;47.740;7.606;2022-08-21T01:45:21;1.80;;;1.10;;
7501;SDS011;3792;47.740;7.606;2022-08-21T01:47:49;1.00;;;1.00;;
7501;SDS011;3792;47.740;7.606;2022-08-21T01:50:17;3.07;;;1.30;;
7501;SDS011;3792;47.740;7.606;2022-08-21T01:52:45;1.43;;;1.10;;
7501;SDS011;3792;47.740;7.606;2022-08-21T01:55:13;1.60;;;1.27;;
7501;SDS011;3792;47.740;7.606;2022-08-21T01:57:42;2.17;;;1.20;;
7501;SDS011;3792;47.740;7.606;2022-08-21T02:00:11;1.90;;;1.30;;
7501;SDS011;3792;47.740;7.606;2022-08-21T02:02:41;2.57;;;1.63;;
7501;SDS011;3792;47.740;7.606;2022-08-21T02:05:09;2.73;;;1.10;;
7501;SDS011;3792;47.740;7.606;2022-08-21T02:07:38;3.40;;;1.30;;
7501;SDS011;3792;47.740;7.606;2022-08-21T02:10:07;4.50;;;1.27;;
7501;SDS011;3792;47.740;7.606;2022-08-21T02:12:37;3.57;;;1.30;;
7501;SDS011;3792;47.740;7.606;2022-08-21T02:15:07;1.23;;;1.20;;
7501;SDS011;3792;47.740;7.606;2022-08-21T02:17:38;3.57;;;1.10;;
7501;SDS011;3792;47.740;7.606;2022-08-21T02:20:08;2.43;;;1.10;;
7501;SDS011;3792;47.740;7.606;2022-08-21T02:22:37;1.83;;;1.00;;
7501;SDS011;3792;47.740;7.606;2022-08-21T02:25:04;1.93;;;1.20;;
7501;SDS011;3792;47.740;7.606;2022-08-21T02:27:37;2.43;;;1.07;;
7501;SDS011;3792;47.740;7.606;2022-08-21T02:30:07;1.67;;;1.40;;
7501;SDS011;3792;47.740;7.606;2022-08-21T02:32:37;1.17;;;1.00;;
7501;SDS011;3792;47.740;7.606;2022-08-21T02:35:05;1.70;;;1.17;;
7501;SDS011;3792;47.740;7.606;2022-08-21T02:37:32;1.20;;;1.10;;
7501;SDS011;3792;47.740;7.606;2022-08-21T02:40:00;4.23;;;1.30;;
7501;SDS011;3792;47.740;7.606;2022-08-21T02:42:27;1.00;;;0.80;;
7501;SDS011;3792;47.740;7.606;2022-08-21T02:44:55;1.30;;;1.20;;
7501;SDS011;3792;47.740;7.606;2022-08-21T02:47:23;3.93;;;1.50;;
7501;SDS011;3792;47.740;7.606;2022-08-21T02:49:51;3.07;;;1.10;;
7501;SDS011;3792;47.740;7.606;2022-08-21T02:52:18;1.40;;;1.10;;
7501;SDS011;3792;47.740;7.606;2022-08-21T02:54:46;3.90;;;1.13;;
7501;SDS011;3792;47.740;7.606;2022-08-21T02:57:14;4.20;;;1.20;;
7501;SDS011;3792;47.740;7.606;2022-08-21T02:59:41;3.20;;;1.43;;
7501;SDS011;3792;47.740;7.606;2022-08-21T03:02:08;3.00;;;1.40;;
7501;SDS011;3792;47.740;7.606;2022-08-21T03:04:38;3.37;;;1.27;;
7501;SDS011;3792;47.740;7.606;2022-08-21T03:07:05;1.43;;;1.17;;
7501;SDS011;3792;47.740;7.606;2022-08-21T03:09:32;7.70;;;1.47;;
7501;SDS011;3792;47.740;7.606;2022-08-21T03:11:59;5.33;;;1.47;;
7501;SDS011;3792;47.740;7.606;2022-08-21T03:14:26;1.50;;;1.07;;
7501;SDS011;3792;47.740;7.606;2022-08-21T03:16:53;0.80;;;0.80;;
7501;SDS011;3792;47.740;7.606;2022-08-21T03:19:20;4.33;;;1.17;;
7501;SDS011;3792;47.740;7.606;2022-08-21T03:21:48;1.10;;;1.00;;
7501;SDS011;3792;47.740;7.606;2022-08-21T03:24:16;3.37;;;1.50;;
7501;SDS011;3792;47.740;7.606;2022-08-21T03:26:43;2.43;;;1.10;;
7501;SDS011;3792;47.740;7.606;2022-08-21T03:29:10;1.57;;;1.43;;
7501;SDS011;3792;47.740;7.606;2022-08-21T03:31:37;1.70;;;1.27;;
7501;SDS011;3792;47.740;7.606;2022-08-21T03:34:04;3.67;;;1.23;;
7501;SDS011;3792;47.740;7.606;2022-08-21T03:36:31;2.37;;;1.10;;
7501;SDS011;3792;47.740;7.606;2022-08-21T03:39:00;1.93;;;1.10;;
7501;SDS011;3792;47.740;7.606;2022-08-21T03:41:27;4.77;;;1.77;;
7501;SDS011;3792;47.740;7.606;2022-08-21T03:43:54;2.80;;;1.50;;
7501;SDS011;3792;47.740;7.606;2022-08-21T03:46:21;1.23;;;1.20;;
7501;SDS011;3792;47.740;7.606;2022-08-21T03:48:48;4.30;;;1.30;;
7501;SDS011;3792;47.740;7.606;2022-08-21T03:51:17;6.50;;;1.40;;
7501;SDS011;3792;47.740;7.606;2022-08-21T03:53:45;1.57;;;1.33;;
7501;SDS011;3792;47.740;7.606;2022-08-21T03:56:13;1.53;;;1.10;;
7501;SDS011;3792;47.740;7.606;2022-08-21T03:58:41;3.40;;;1.17;;
7501;SDS011;3792;47.740;7.606;2022-08-21T04:01:09;2.63;;;1.30;;
7501;SDS011;3792;47.740;7.606;2022-08-21T04:03:36;1.20;;;1.10;;
7501;SDS011;3792;47.740;7.606;2022-08-21T04:06:04;1.27;;;1.17;;
7501;SDS011;3792;47.740;7.606;2022-08-21T04:08:32;1.57;;;1.10;;
7501;SDS011;3792;47.740;7.606;2022-08-21T04:11:00;6.43;;;1.67;;
7501;SDS011;3792;47.740;7.606;2022-08-21T04:13:29;3.80;;;1.20;;
7501;SDS011;3792;47.740;7.606;2022-08-21T04:15:56;1.60;;;1.10;;
7501;SDS011;3792;47.740;7.606;2022-08-21T04:18:24;1.70;;;1.00;;
7501;SDS011;3792;47.740;7.606;2022-08-21T04:20:51;2.37;;;1.20;;
7501;SDS011;3792;47.740;7.606;2022-08-21T04:23:19;2.27;;;1.20;;
7501;SDS011;3792;47.740;7.606;2022-08-21T04:25:47;2.77;;;1.77;;
7501;SDS011;3792;47.740;7.606;2022-08-21T04:28:14;1.53;;;1.30;;
7501;SDS011;3792;47.740;7.606;2022-08-21T04:30:43;4.00;;;1.03;;
7501;SDS011;3792;47.740;7.606;2022-08-21T04:33:10;2.13;;;1.17;;
7501;SDS011;3792;47.740;7.606;2022-08-21T04:35:37;1.40;;;1.20;;
7501;SDS011;3792;47.740;7.606;2022-08-21T04:38:05;3.63;;;1.30;;
7501;SDS011;3792;47.740;7.606;2022-08-21T04:40:32;2.07;;;1.20;;
7501;SDS011;3792;47.740;7.606;2022-08-21T04:43:01;2.67;;;1.30;;
7501;SDS011;3792;47.740;7.606;2022-08-21T04:45:30;2.13;;;1.23;;
7501;SDS011;3792;47.740;7.606;2022-08-21T04:48:02;2.50;;;1.53;;
7501;SDS011;3792;47.740;7.606;2022-08-21T04:50:31;2.67;;;1.30;;
7501;SDS011;3792;47.740;7.606;2022-08-21T04:53:04;3.10;;;1.20;;
7501;SDS011;3792;47.740;7.606;2022-08-21T04:55:33;1.13;;;1.07;;
7501;SDS011;3792;47.740;7.606;2022-08-21T04:58:02;4.77;;;1.37;;
7501;SDS011;3792;47.740;7.606;2022-08-21T05:00:30;6.90;;;1.93;;
7501;SDS011;3792;47.740;7.606;2022-08-21T05:02:57;3.30;;;1.20;;
7501;SDS011;3792;47.740;7.606;2022-08-21T05:05:27;1.47;;;1.10;;
7501;SDS011;3792;47.740;7.606;2022-08-21T05:07:55;1.47;;;1.10;;
7501;SDS011;3792;47.740;7.606;2022-08-21T05:10:23;2.80;;;1.53;;
7501;SDS011;3792;47.740;7.606;2022-08-21T05:12:50;3.53;;;1.07;;
7501;SDS011;3792;47.740;7.606;2022-08-21T05:15:18;1.57;;;1.30;;
7501;SDS011;3792;47.740;7.606;2022-08-21T05:17:45;2.93;;;1.30;;
7501;SDS011;3792;47.740;7.606;2022-08-21T05:20:14;1.10;;;1.10;;
7501;SDS011;3792;47.740;7.606;2022-08-21T05:22:41;3.63;;;1.10;;
7501;SDS011;3792;47.740;7.606;2022-08-21T05:25:08;1.90;;;1.20;;
7501;SDS011;3792;47.740;7.606;2022-08-21T05:27:36;4.00;;;1.30;;
7501;SDS011;3792;47.740;7.606;2022-08-21T05:30:04;1.20;;;1.10;;
7501;SDS011;3792;47.740;7.606;2022-08-21T05:32:32;2.20;;;0.87;;
7501;SDS011;3792;47.740;7.606;2022-08-21T05:35:00;2.37;;;1.33;;
7501;SDS011;3792;47.740;7.606;2022-08-21T05:37:28;1.60;;;1.20;;
7501;SDS011;3792;47.740;7.606;2022-08-21T05:39:55;7.00;;;1.53;;
7501;SDS011;3792;47.740;7.606;2022-08-21T05:42:22;2.80;;;1.47;;
7501;SDS011;3792;47.740;7.606;2022-08-21T05:44:49;1.30;;;1.20;;
7501;SDS011;3792;47.740;7.606;2022-08-21T05:47:17;2.90;;;1.33;;
7501;SDS011;3792;47.740;7.606;2022-08-21T05:49:44;2.67;;;1.30;;
7501;SDS011;3792;47.740;7.606;2022-08-21T05:52:11;1.43;;;1.30;;
7501;SDS011;3792;47.740;7.606;2022-08-21T05:54:45;1.57;;;1.47;;
7501;SDS011;3792;47.740;7.606;2022-08-21T05:57:12;3.83;;;1.40;;
7501;SDS011;3792;47.740;7.606;2022-08-21T05:59:39;1.47;;;1.37;;
7501;SDS011;3792;47.740;7.606;2022-08-21T06:02:07;2.13;;;1.13;;
7501;SDS011;3792;47.740;7.606;2022-08-21T06:04:35;2.10;;;1.30;;
7501;SDS011;3792;47.740;7.606;2022-08-21T06:07:02;3.10;;;1.50;;
7501;SDS011;3792;47.740;7.606;2022-08-21T06:09:30;3.13;;;1.20;;
7501;SDS011;3792;47.740;7.606;2022-08-21T06:12:02;3.07;;;1.50;;
7501;SDS011;3792;47.740;7.606;2022-08-21T06:14:29;2.60;;;1.30;;
7501;SDS011;3792;47.740;7.606;2022-08-21T06:17:01;1.63;;;1.53;;
7501;SDS011;3792;47.740;7.606;2022-08-21T06:19:29;1.20;;;1.10;;
7501;SDS011;3792;47.740;7.606;2022-08-21T06:21:57;1.50;;;1.40;;
7501;SDS011;3792;47.740;7.606;2022-08-21T06:24:24;2.43;;;1.43;;
7501;SDS011;3792;47.740;7.606;2022-08-21T06:26:51;2.73;;;1.40;;
7501;SDS011;3792;47.740;7.606;2022-08-21T06:29:21;1.63;;;1.30;;
7501;SDS011;3792;47.740;7.606;2022-08-21T06:31:51;2.37;;;1.50;;
7501;SDS011;3792;47.740;7.606;2022-08-21T06:34:19;2.37;;;1.47;;
7501;SDS011;3792;47.740;7.606;2022-08-21T06:36:46;3.47;;;1.70;;
7501;SDS011;3792;47.740;7.606;2022-08-21T06:39:13;1.30;;;1.20;;
7501;SDS011;3792;47.740;7.606;2022-08-21T06:41:40;2.63;;;1.50;;
7501;SDS011;3792;47.740;7.606;2022-08-21T06:44:07;3.30;;;1.60;;
7501;SDS011;3792;47.740;7.606;2022-08-21T06:46:36;1.83;;;1.70;;
7501;SDS011;3792;47.740;7.606;2022-08-21T06:49:03;2.23;;;1.50;;
7501;SDS011;3792;47.740;7.606;2022-08-21T06:51:30;2.37;;;1.63;;
7501;SDS011;3792;47.740;7.606;2022-08-21T06:53:58;3.73;;;1.57;;
7501;SDS011;3792;47.740;7.606;2022-08-21T06:56:25;1.60;;;1.50;;
7501;SDS011;3792;47.740;7.606;2022-08-21T06:58:53;2.33;;;1.50;;
7501;SDS011;3792;47.740;7.606;2022-08-21T07:01:24;4.50;;;1.67;;
7501;SDS011;3792;47.740;7.606;2022-08-21T07:03:55;2.03;;;1.47;;
7501;SDS011;3792;47.740;7.606;2022-08-21T07:06:23;2.10;;;1.30;;
7501;SDS011;3792;47.740;7.606;2022-08-21T07:08:51;5.53;;;1.90;;
7501;SDS011;3792;47.740;7.606;2022-08-21T07:11:19;2.03;;;1.70;;
7501;SDS011;3792;47.740;7.606;2022-08-21T07:13:49;2.07;;;1.50;;
7501;SDS011;3792;47.740;7.606;2022-08-21T07:16:19;1.20;;;1.20;;
7501;SDS011;3792;47.740;7.606;2022-08-21T07:18:46;1.40;;;1.27;;
7501;SDS011;3792;47.740;7.606;2022-08-21T07:21:16;1.73;;;1.57;;
7501;SDS011;3792;47.740;7.606;2022-08-21T07:23:45;3.07;;;1.60;;
7501;SDS011;3792;47.740;7.606;2022-08-21T07:26:15;3.23;;;1.73;;
7501;SDS011;3792;47.740;7.606;2022-08-21T07:28:45;3.43;;;1.53;;
7501;SDS011;3792;47.740;7.606;2022-08-21T07:31:13;1.60;;;1.50;;
7501;SDS011;3792;47.740;7.606;2022-08-21T07:33:42;4.03;;;1.80;;
7501;SDS011;3792;47.740;7.606;2022-08-21T07:36:10;4.47;;;1.40;;
7501;SDS011;3792;47.740;7.606;2022-08-21T07:38:39;2.50;;;1.67;;
7501;SDS011;3792;47.740;7.606;2022-08-21T07:41:07;2.93;;;1.80;;
7501;SDS011;3792;47.740;7.606;2022-08-21T07:43:39;3.13;;;2.17;;
7501;SDS011;3792;47.740;7.606;2022-08-21T07:46:09;2.93;;;1.90;;
7501;SDS011;3792;47.740;7.606;2022-08-21T07:48:36;2.70;;;1.40;;
7501;SDS011;3792;47.740;7.606;2022-08-21T07:51:05;4.50;;;1.73;;
7501;SDS011;3792;47.740;7.606;2022-08-21T07:53:33;4.20;;;1.93;;
7501;SDS011;3792;47.740;7.606;2022-08-21T07:56:02;3.93;;;1.80;;
7501;SDS011;3792;47.740;7.606;2022-08-21T07:58:30;5.80;;;1.93;;
7501;SDS011;3792;47.740;7.606;2022-08-21T08:00:57;3.53;;;1.80;;
7501;SDS011;3792;47.740;7.606;2022-08-21T08:03:25;2.80;;;2.07;;
7501;SDS011;3792;47.740;7.606;2022-08-21T08:05:52;2.23;;;2.00;;
7501;SDS011;3792;47.740;7.606;2022-08-21T08:08:19;3.00;;;2.53;;
7501;SDS011;3792;47.740;7.606;2022-08-21T08:10:46;7.33;;;2.30;;
7501;SDS011;3792;47.740;7.606;2022-08-21T08:13:16;2.43;;;1.90;;
7501;SDS011;3792;47.740;7.606;2022-08-21T08:15:43;4.20;;;2.00;;
7501;SDS011;3792;47.740;7.606;2022-08-21T08:18:10;3.93;;;1.97;;
7501;SDS011;3792;47.740;7.606;2022-08-21T08:20:37;3.23;;;2.10;;
7501;SDS011;3792;47.740;7.606;2022-08-21T08:23:05;4.20;;;2.10;;
7501;SDS011;3792;47.740;7.606;2022-08-21T08:25:33;4.83;;;2.53;;
7501;SDS011;3792;47.740;7.606;2022-08-21T08:28:00;4.50;;;2.00;;
7501;SDS011;3792;47.740;7.606;2022-08-21T08:30:28;5.40;;;2.10;;
7501;SDS011;3792;47.740;7.606;2022-08-21T08:32:55;3.80;;;2.20;;
7501;SDS011;3792;47.740;7.606;2022-08-21T08:35:23;1.80;;;1.70;;
7501;SDS011;3792;47.740;7.606;2022-08-21T08:37:50;3.87;;;2.03;;
7501;SDS011;3792;47.740;7.606;2022-08-21T08:40:18;2.30;;;2.07;;
7501;SDS011;3792;47.740;7.606;2022-08-21T08:42:49;3.50;;;1.90;;
7501;SDS011;3792;47.740;7.606;2022-08-21T08:45:18;3.73;;;1.90;;
7501;SDS011;3792;47.740;7.606;2022-08-21T08:47:49;9.63;;;2.50;;
7501;SDS011;3792;47.740;7.606;2022-08-21T08:50:23;4.53;;;1.97;;
7501;SDS011;3792;47.740;7.606;2022-08-21T08:52:57;4.00;;;2.03;;
7501;SDS011;3792;47.740;7.606;2022-08-21T08:55:31;3.80;;;1.83;;
7501;SDS011;3792;47.740;7.606;2022-08-21T08:58:01;2.70;;;1.73;;
7501;SDS011;3792;47.740;7.606;2022-08-21T09:00:28;2.60;;;2.10;;
7501;SDS011;3792;47.740;7.606;2022-08-21T09:02:59;4.00;;;1.77;;
7501;SDS011;3792;47.740;7.606;2022-08-21T09:05:29;2.63;;;2.20;;
7501;SDS011;3792;47.740;7.606;2022-08-21T09:08:14;2.87;;;1.90;;
7501;SDS011;3792;47.740;7.606;2022-08-21T09:10:51;3.40;;;2.20;;
7501;SDS011;3792;47.740;7.606;2022-08-21T09:13:33;2.53;;;1.53;;
7501;SDS011;3792;47.740;7.606;2022-08-21T09:16:15;3.10;;;1.87;;
7501;SDS011;3792;47.740;7.606;2022-08-21T09:18:54;3.53;;;2.00;;
7501;SDS011;3792;47.740;7.606;2022-08-21T09:21:31;2.40;;;1.80;;
7501;SDS011;3792;47.740;7.606;2022-08-21T09:24:18;4.17;;;2.40;;
7501;SDS011;3792;47.740;7.606;2022-08-21T09:27:07;2.80;;;2.13;;
7501;SDS011;3792;47.740;7.606;2022-08-21T09:29:37;2.07;;;1.93;;
7501;SDS011;3792;47.740;7.606;2022-08-21T09:32:09;2.83;;;2.00;;
7501;SDS011;3792;47.740;7.606;2022-08-21T09:34:53;4.00;;;3.03;;
7501;SDS011;3792;47.740;7.606;2022-08-21T09:37:23;4.77;;;2.00;;
7501;SDS011;3792;47.740;7.606;2022-08-21T09:39:50;3.03;;;2.10;;
7501;SDS011;3792;47.740;7.606;2022-08-21T09:42:21;4.67;;;2.20;;
7501;SDS011;3792;47.740;7.606;2022-08-21T09:45:04;2.20;;;1.97;;
7501;SDS011;3792;47.740;7.606;2022-08-21T09:47:35;5.53;;;2.27;;
7501;SDS011;3792;47.740;7.606;2022-08-21T09:50:12;3.50;;;2.07;;
7501;SDS011;3792;47.740;7.606;2022-08-21T09:52:46;4.70;;;2.10;;
7501;SDS011;3792;47.740;7.606;2022-08-21T09:55:20;3.73;;;2.03;;
7501;SDS011;3792;47.740;7.606;2022-08-21T09:58:12;2.77;;;2.20;;
7501;SDS011;3792;47.740;7.606;2022-08-21T10:00:40;2.40;;;2.10;;
7501;SDS011;3792;47.740;7.606;2022-08-21T10:03:11;5.07;;;2.00;;
7501;SDS011;3792;47.740;7.606;2022-08-21T10:05:51;3.30;;;2.10;;
7501;SDS011;3792;47.740;7.606;2022-08-21T10:08:22;3.60;;;2.00;;
7501;SDS011;3792;47.740;7.606;2022-08-21T10:10:53;3.03;;;1.90;;
7501;SDS011;3792;47.740;7.606;2022-08-21T10:13:25;2.80;;;2.07;;
7501;SDS011;3792;47.740;7.606;2022-08-21T10:16:02;3.00;;;2.03;;
7501;SDS011;3792;47.740;7.606;2022-08-21T10:18:40;3.20;;;2.00;;
7501;SDS011;3792;47.740;7.606;2022-08-21T10:21:15;2.33;;;2.03;;
7501;SDS011;3792;47.740;7.606;2022-08-21T10:23:52;3.87;;;1.97;;
7501;SDS011;3792;47.740;7.606;2022-08-21T10:26:32;1.90;;;1.80;;
7501;SDS011;3792;47.740;7.606;2022-08-21T10:29:12;3.17;;;2.10;;
7501;SDS011;3792;47.740;7.606;2022-08-21T10:31:50;3.67;;;1.80;;
7501;SDS011;3792;47.740;7.606;2022-08-21T10:34:29;5.30;;;1.90;;
7501;SDS011;3792;47.740;7.606;2022-08-21T10:37:11;3.67;;;1.80;;
7501;SDS011;3792;47.740;7.606;2022-08-21T10:39:46;5.20;;;2.10;;
7501;SDS011;3792;47.740;7.606;2022-08-21T10:42:25;3.63;;;1.80;;
7501;SDS011;3792;47.740;7.606;2022-08-21T10:45:01;2.63;;;1.90;;
7501;SDS011;3792;47.740;7.606;2022-08-21T10:47:41;2.07;;;1.73;;
7501;SDS011;3792;47.740;7.606;2022-08-21T10:50:17;3.73;;;1.87;;
7501;SDS011;3792;47.740;7.606;2022-08-21T10:53:08;2.10;;;1.80;;
7501;SDS011;3792;47.740;7.606;2022-08-21T10:55:46;2.07;;;1.87;;
7501;SDS011;3792;47.740;7.606;2022-08-21T10:58:19;2.80;;;1.53;;
7501;SDS011;3792;47.740;7.606;2022-08-21T11:00:55;3.47;;;1.83;;
7501;SDS011;3792;47.740;7.606;2022-08-21T11:03:28;2.03;;;1.63;;
7501;SDS011;3792;47.740;7.606;2022-08-21T11:05:59;2.00;;;1.50;;
7501;SDS011;3792;47.740;7.606;2022-08-21T11:08:33;2.63;;;1.67;;
7501;SDS011;3792;47.740;7.606;2022-08-21T11:11:06;5.23;;;1.77;;
7501;SDS011;3792;47.740;7.606;2022-08-21T11:13:39;4.90;;;1.77;;
7501;SDS011;3792;47.740;7.606;2022-08-21T11:16:10;3.83;;;1.60;;
7501;SDS011;3792;47.740;7.606;2022-08-21T11:18:45;2.70;;;1.67;;
7501;SDS011;3792;47.740;7.606;2022-08-21T11:21:26;1.87;;;1.60;;
7501;SDS011;3792;47.740;7.606;2022-08-21T11:24:02;3.77;;;2.00;;
7501;SDS011;3792;47.740;7.606;2022-08-21T11:26:41;3.30;;;2.10;;
7501;SDS011;3792;47.740;7.606;2022-08-21T11:29:13;5.17;;;2.13;;
7501;SDS011;3792;47.740;7.606;2022-08-21T11:31:49;3.77;;;1.93;;
7501;SDS011;3792;47.740;7.606;2022-08-21T11:34:31;2.03;;;1.70;;
7501;SDS011;3792;47.740;7.606;2022-08-21T11:37:12;3.37;;;1.80;;
7501;SDS011;3792;47.740;7.606;2022-08-21T11:39:53;3.80;;;1.70;;
7501;SDS011;3792;47.740;7.606;2022-08-21T11:42:29;3.20;;;1.60;;
7501;SDS011;3792;47.740;7.606;2022-08-21T11:45:09;2.33;;;1.67;;
7501;SDS011;3792;47.740;7.606;2022-08-21T11:47:52;3.83;;;1.70;;
7501;SDS011;3792;47.740;7.606;2022-08-21T11:50:28;2.07;;;1.53;;
7501;SDS011;3792;47.740;7.606;2022-08-21T11:52:58;1.63;;;1.50;;
7501;SDS011;3792;47.740;7.606;2022-08-21T11:55:31;4.33;;;1.60;;
7501;SDS011;3792;47.740;7.606;2022-08-21T11:58:04;3.67;;;1.80;;
7501;SDS011;3792;47.740;7.606;2022-08-21T12:00:35;3.40;;;1.67;;
7501;SDS011;3792;47.740;7.606;2022-08-21T12:03:06;3.23;;;1.63;;
7501;SDS011;3792;47.740;7.606;2022-08-21T12:05:38;1.67;;;1.50;;
7501;SDS011;3792;47.740;7.606;2022-08-21T12:08:10;1.77;;;1.60;;
7501;SDS011;3792;47.740;7.606;2022-08-21T12:10:41;4.00;;;1.67;;
7501;SDS011;3792;47.740;7.606;2022-08-21T12:13:22;2.97;;;1.53;;
7501;SDS011;3792;47.740;7.606;2022-08-21T12:15:50;5.73;;;1.77;;
7501;SDS011;3792;47.740;7.606;2022-08-21T12:18:21;2.00;;;1.70;;
7501;SDS011;3792;47.740;7.606;2022-08-21T12:21:04;3.07;;;1.63;;
7501;SDS011;3792;47.740;7.606;2022-08-21T12:23:45;2.33;;;1.60;;
7501;SDS011;3792;47.740;7.606;2022-08-21T12:26:29;3.80;;;1.40;;
7501;SDS011;3792;47.740;7.606;2022-08-21T12:29:10;3.27;;;1.80;;
7501;SDS011;3792;47.740;7.606;2022-08-21T12:31:53;2.20;;;1.63;;
7501;SDS011;3792;47.740;7.606;2022-08-21T12:34:23;4.53;;;1.73;;
7501;SDS011;3792;47.740;7.606;2022-08-21T12:37:00;5.13;;;2.00;;
7501;SDS011;3792;47.740;7.606;2022-08-21T12:39:32;4.47;;;2.27;;
7501;SDS011;3792;47.740;7.606;2022-08-21T12:42:05;3.83;;;2.20;;
7501;SDS011;3792;47.740;7.606;2022-08-21T12:44:39;3.80;;;1.87;;
7501;SDS011;3792;47.740;7.606;2022-08-21T12:47:14;2.77;;;1.97;;
7501;SDS011;3792;47.740;7.606;2022-08-21T12:49:45;3.07;;;1.70;;
7501;SDS011;3792;47.740;7.606;2022-08-21T12:52:21;4.00;;;2.07;;
7501;SDS011;3792;47.740;7.606;2022-08-21T12:54:50;4.60;;;2.03;;
7501;SDS011;3792;47.740;7.606;2022-08-21T12:57:20;5.67;;;2.43;;
7501;SDS011;3792;47.740;7.606;2022-08-21T12:59:53;8.30;;;3.00;;
7501;SDS011;3792;47.740;7.606;2022-08-21T13:02:22;4.67;;;2.70;;
7501;SDS011;3792;47.740;7.606;2022-08-21T13:04:54;2.03;;;1.70;;
7501;SDS011;3792;47.740;7.606;2022-08-21T13:07:25;3.87;;;2.00;;
7501;SDS011;3792;47.740;7.606;2022-08-21T13:09:56;4.30;;;2.13;;
7501;SDS011;3792;47.740;7.606;2022-08-21T13:12:27;3.20;;;1.90;;
7501;SDS011;3792;47.740;7.606;2022-08-21T13:14:56;4.07;;;2.10;;
7501;SDS011;3792;47.740;7.606;2022-08-21T13:17:29;4.63;;;1.53;;
7501;SDS011;3792;47.740;7.606;2022-08-21T13:20:01;3.73;;;1.60;;
7501;SDS011;3792;47.740;7.606;2022-08-21T13:22:30;2.87;;;1.60;;
7501;SDS011;3792;47.740;7.606;2022-08-21T13:24:57;3.20;;;1.80;;
7501;SDS011;3792;47.740;7.606;2022-08-21T13:27:25;1.73;;;1.60;;
7501;SDS011;3792;47.740;7.606;2022-08-21T13:30:02;4.20;;;1.77;;
7501;SDS011;3792;47.740;7.606;2022-08-21T13:32:33;2.40;;;1.50;;
7501;SDS011;3792;47.740;7.606;2022-08-21T13:35:13;4.73;;;1.50;;
7501;SDS011;3792;47.740;7.606;2022-08-21T13:37:42;5.10;;;2.03;;
7501;SDS011;3792;47.740;7.606;2022-08-21T13:40:11;6.80;;;2.00;;
7501;SDS011;3792;47.740;7.606;2022-08-21T13:42:43;2.63;;;1.70;;
7501;SDS011;3792;47.740;7.606;2022-08-21T13:45:12;2.53;;;1.47;;
7501;SDS011;3792;47.740;7.606;2022-08-21T13:47:43;6.10;;;1.83;;
7501;SDS011;3792;47.740;7.606;2022-08-21T13:50:13;3.87;;;1.60;;
7501;SDS011;3792;47.740;7.606;2022-08-21T13:52:53;3.27;;;1.47;;
7501;SDS011;3792;47.740;7.606;2022-08-21T13:55:22;3.47;;;1.67;;
7501;SDS011;3792;47.740;7.606;2022-08-21T13:57:59;1.73;;;1.63;;
7501;SDS011;3792;47.740;7.606;2022-08-21T14:00:28;5.77;;;2.07;;
7501;SDS011;3792;47.740;7.606;2022-08-21T14:03:01;5.05;;;1.60;;
7501;SDS011;3792;47.740;7.606;2022-08-21T14:05:33;1.77;;;1.40;;
7501;SDS011;3792;47.740;7.606;2022-08-21T14:08:04;2.30;;;1.30;;
7501;SDS011;3792;47.740;7.606;2022-08-21T14:10:35;1.73;;;1.37;;
7501;SDS011;3792;47.740;7.606;2022-08-21T14:13:18;1.73;;;1.50;;
7501;SDS011;3792;47.740;7.606;2022-08-21T14:15:59;2.57;;;1.50;;
7501;SDS011;3792;47.740;7.606;2022-08-21T14:18:27;4.20;;;1.60;;
7501;SDS011;3792;47.740;7.606;2022-08-21T14:21:06;2.43;;;1.40;;
7501;SDS011;3792;47.740;7.606;2022-08-21T14:23:34;1.50;;;1.40;;
7501;SDS011;3792;47.740;7.606;2022-08-21T14:26:02;3.03;;;1.43;;
7501;SDS011;3792;47.740;7.606;2022-08-21T14:28:34;2.90;;;1.60;;
7501;SDS011;3792;47.740;7.606;2022-08-21T14:31:13;2.20;;;1.40;;
7501;SDS011;3792;47.740;7.606;2022-08-21T14:33:42;2.03;;;1.20;;
7501;SDS011;3792;47.740;7.606;2022-08-21T14:36:09;2.73;;;1.37;;
7501;SDS011;3792;47.740;7.606;2022-08-21T14:38:38;2.73;;;1.50;;
7501;SDS011;3792;47.740;7.606;2022-08-21T14:41:08;1.57;;;1.40;;
7501;SDS011;3792;47.740;7.606;2022-08-21T14:43:43;1.60;;;1.47;;
7501;SDS011;3792;47.740;7.606;2022-08-21T14:46:12;2.60;;;1.47;;
7501;SDS011;3792;47.740;7.606;2022-08-21T14:48:43;2.33;;;1.40;;
7501;SDS011;3792;47.740;7.606;2022-08-21T14:51:11;1.53;;;1.43;;
7501;SDS011;3792;47.740;7.606;2022-08-21T14:53:39;1.90;;;1.40;;
7501;SDS011;3792;47.740;7.606;2022-08-21T14:56:06;2.27;;;1.53;;
7501;SDS011;3792;47.740;7.606;2022-08-21T14:58:34;3.90;;;1.60;;
7501;SDS011;3792;47.740;7.606;2022-08-21T15:01:05;1.63;;;1.20;;
7501;SDS011;3792;47.740;7.606;2022-08-21T15:03:34;1.53;;;1.20;;
7501;SDS011;3792;47.740;7.606;2022-08-21T15:06:02;3.10;;;1.40;;
7501;SDS011;3792;47.740;7.606;2022-08-21T15:08:30;1.73;;;1.30;;
7501;SDS011;3792;47.740;7.606;2022-08-21T15:10:58;1.80;;;1.10;;
7501;SDS011;3792;47.740;7.606;2022-08-21T15:13:27;3.30;;;1.40;;
7501;SDS011;3792;47.740;7.606;2022-08-21T15:15:56;5.23;;;1.40;;
7501;SDS011;3792;47.740;7.606;2022-08-21T15:18:25;1.37;;;1.00;;
7501;SDS011;3792;47.740;7.606;2022-08-21T15:20:53;1.37;;;1.20;;
7501;SDS011;3792;47.740;7.606;2022-08-21T15:23:20;3.37;;;1.23;;
7501;SDS011;3792;47.740;7.606;2022-08-21T15:25:48;1.70;;;1.13;;
7501;SDS011;3792;47.740;7.606;2022-08-21T15:28:18;1.90;;;1.60;;
7501;SDS011;3792;47.740;7.606;2022-08-21T15:30:46;2.87;;;1.10;;
7501;SDS011;3792;47.740;7.606;2022-08-21T15:33:14;2.17;;;1.30;;
7501;SDS011;3792;47.740;7.606;2022-08-21T15:35:43;2.53;;;1.27;;